Marshallton, Delaware
Current Conditions -  °F | °C
As of 3:51 AM on Friday 31 Oct 2014 (Local Time) from KILG Reporting Station
Few Clouds Few Clouds  
Wind Chill: 36°   Ceiling: Unl
Heat Index: 39°   Visibility: 10mi
Dew Point: 37°   Wind: 5mph
Humidity: 93%   Direction: 350°N
Pressure: 30.02"   Gusts: NA
Location:  39.7388°N, 75.6642°W
Report Text: KILG 310751Z 35004KT 10SM FEW055 04/03 A3002 RMK AO2 SLP166 T00390028
Loading
Personal Weather Stations






























Interactive Weather Map
Tropical Storm Tracking
New forecast layout! Learn more

10-Day Weather Forecast

Advertisements
Track Severe Weather on mobile